createdAt,value
2018-06-24T00:00:18.319Z,30.3
2018-06-24T00:01:21.045Z,30.3
2018-06-24T00:02:23.780Z,30.3
2018-06-24T00:03:26.503Z,30.8
2018-06-24T00:04:28.953Z,30.3
2018-06-24T00:05:31.680Z,30.3
2018-06-24T00:06:34.392Z,30.8
2018-06-24T00:07:37.113Z,30.3
2018-06-24T00:08:39.824Z,30.3
2018-06-24T00:09:42.531Z,30.3
2018-06-24T00:10:45.258Z,30.3
2018-06-24T00:11:47.972Z,30.3
2018-06-24T00:12:50.412Z,30.3
2018-06-24T00:13:53.443Z,30.3
2018-06-24T00:14:56.300Z,29.8
2018-06-24T00:15:59.011Z,30.3
2018-06-24T00:17:01.730Z,29.8
2018-06-24T00:18:04.444Z,30.3
2018-06-24T00:19:07.167Z,29.8
2018-06-24T00:20:09.908Z,29.8
2018-06-24T00:21:12.617Z,29.8
2018-06-24T00:22:15.093Z,29.8
2018-06-24T00:23:17.802Z,29.8
2018-06-24T00:24:20.533Z,30.3
2018-06-24T00:25:23.271Z,29.8
2018-06-24T00:26:25.710Z,29.8
2018-06-24T00:27:28.428Z,29.8
2018-06-24T00:28:31.160Z,29.8
2018-06-24T00:29:33.890Z,29.8
2018-06-24T00:30:36.333Z,29.8
2018-06-24T00:31:39.065Z,29.8
2018-06-24T00:32:41.773Z,29.8
2018-06-24T00:33:44.507Z,29.8
2018-06-24T00:34:47.226Z,29.8
2018-06-24T00:35:49.937Z,29.8
2018-06-24T00:36:52.649Z,29.8
2018-06-24T00:37:55.355Z,29.3
2018-06-24T00:38:58.080Z,29.8
2018-06-24T00:40:00.808Z,29.8
2018-06-24T00:41:03.517Z,29.3
2018-06-24T00:42:06.229Z,29.8
2018-06-24T00:43:08.954Z,29.3
2018-06-24T00:44:11.675Z,29.8
2018-06-24T00:45:14.396Z,29.8
2018-06-24T00:46:16.829Z,29.3
2018-06-24T00:47:19.557Z,29.3
2018-06-24T00:48:21.997Z,29.3
2018-06-24T00:49:24.450Z,29.3
2018-06-24T00:50:27.166Z,29.8
2018-06-24T00:51:29.894Z,29.3
2018-06-24T00:52:32.369Z,29.3
2018-06-24T00:53:35.089Z,29.3
2018-06-24T00:54:37.821Z,29.8
2018-06-24T00:55:40.260Z,29.3
2018-06-24T00:56:42.972Z,29.3
2018-06-24T00:57:45.680Z,28.8
2018-06-24T00:58:48.392Z,28.8
2018-06-24T00:59:50.824Z,29.3
2018-06-24T01:00:53.586Z,29.3
2018-06-24T01:01:56.301Z,29.3
2018-06-24T01:02:58.752Z,29.3
2018-06-24T01:04:01.467Z,29.3
2018-06-24T01:05:04.179Z,29.3
2018-06-24T01:06:06.629Z,29.3
2018-06-24T01:07:09.345Z,29.8
2018-06-24T01:08:11.780Z,29.3
2018-06-24T01:09:14.506Z,29.3
2018-06-24T01:10:16.950Z,29.8
2018-06-24T01:11:19.676Z,29.3
2018-06-24T01:12:22.410Z,29.8
2018-06-24T01:13:25.129Z,29.8
2018-06-24T01:14:27.858Z,29.8
2018-06-24T01:15:30.593Z,29.8
2018-06-24T01:16:33.316Z,29.8
2018-06-24T01:17:36.034Z,29.8
2018-06-24T01:18:38.743Z,29.8
2018-06-24T01:19:41.464Z,29.8
2018-06-24T01:20:43.912Z,29.3
2018-06-24T01:21:46.644Z,29.3
2018-06-24T01:22:49.369Z,29.8
2018-06-24T01:23:52.096Z,29.8
2018-06-24T01:24:54.799Z,29.3
2018-06-24T01:25:57.563Z,29.8
2018-06-24T01:27:00.273Z,29.8
2018-06-24T01:28:02.978Z,29.8
2018-06-24T01:29:05.704Z,29.3
2018-06-24T01:30:08.443Z,29.3
2018-06-24T01:31:11.177Z,29.8
2018-06-24T01:32:13.899Z,29.3
2018-06-24T01:33:16.364Z,29.8
2018-06-24T01:34:19.067Z,29.8
2018-06-24T01:35:21.792Z,30.3
2018-06-24T01:36:24.529Z,30.8
2018-06-24T01:37:26.986Z,30.8
2018-06-24T01:39:32.125Z,31.3
2018-06-24T01:40:34.609Z,31.3
2018-06-24T01:41:37.326Z,30.8
2018-06-24T01:42:40.041Z,31.3
2018-06-24T01:43:42.762Z,31.8
2018-06-24T01:44:45.463Z,31.8
2018-06-24T01:45:48.180Z,31.8
2018-06-24T01:46:50.902Z,31.8
2018-06-24T01:47:53.609Z,31.8
2018-06-24T01:48:56.343Z,32.3
2018-06-24T01:49:59.080Z,31.8
2018-06-24T01:51:01.819Z,32.3
2018-06-24T01:52:04.531Z,32.3
2018-06-24T01:53:07.257Z,32.7
2018-06-24T01:54:09.977Z,32.3
2018-06-24T01:55:12.695Z,32.3
2018-06-24T01:56:15.142Z,32.7
2018-06-24T01:57:17.869Z,32.3
2018-06-24T01:58:20.585Z,32.3
2018-06-24T01:59:23.312Z,32.7
2018-06-24T02:00:26.048Z,33.2
2018-06-24T02:01:28.476Z,32.7
2018-06-24T02:02:31.224Z,33.2
2018-06-24T02:03:33.929Z,32.7
2018-06-24T02:04:36.374Z,33.2
2018-06-24T02:05:39.097Z,32.7
2018-06-24T02:06:41.584Z,33.2
2018-06-24T02:07:44.319Z,32.7
2018-06-24T02:08:46.758Z,32.7
2018-06-24T02:09:49.472Z,32.7
2018-06-24T02:10:52.186Z,32.7
2018-06-24T02:11:54.905Z,32.7
2018-06-24T02:12:57.622Z,33.2
2018-06-24T02:14:00.339Z,33.2
2018-06-24T02:15:03.048Z,32.7
2018-06-24T02:16:05.770Z,32.7
2018-06-24T02:17:08.482Z,32.7
2018-06-24T02:18:11.195Z,32.7
2018-06-24T02:19:13.912Z,32.7
2018-06-24T02:20:16.630Z,33.2
2018-06-24T02:21:19.360Z,33.2
2018-06-24T02:22:22.083Z,33.2
2018-06-24T02:23:24.815Z,32.7
2018-06-24T02:24:27.279Z,33.2
2018-06-24T02:25:29.996Z,32.7
2018-06-24T02:26:32.722Z,33.2
2018-06-24T02:27:35.446Z,33.2
2018-06-24T02:28:38.165Z,33.2
2018-06-24T02:29:40.880Z,32.7
2018-06-24T02:30:43.593Z,32.7
2018-06-24T02:31:46.311Z,32.3
2018-06-24T02:32:48.751Z,32.7
2018-06-24T02:33:51.473Z,33.2
2018-06-24T02:34:54.179Z,32.7
2018-06-24T02:35:56.623Z,32.3
2018-06-24T02:36:59.344Z,32.3
2018-06-24T02:38:01.847Z,32.3
2018-06-24T02:39:04.589Z,32.7
2018-06-24T02:40:07.312Z,33.2
2018-06-24T02:41:10.020Z,32.7
2018-06-24T02:42:12.752Z,33.2
2018-06-24T02:43:15.484Z,33.2
2018-06-24T02:44:18.200Z,33.2
2018-06-24T02:45:20.914Z,32.7
2018-06-24T02:46:23.636Z,33.2
2018-06-24T02:47:26.352Z,32.7
2018-06-24T02:48:29.063Z,32.7
2018-06-24T02:49:31.799Z,32.3
2018-06-24T02:50:34.512Z,32.7
2018-06-24T02:51:37.224Z,32.7
2018-06-24T02:52:39.941Z,32.7
2018-06-24T02:53:43.101Z,32.7
2018-06-24T02:54:45.964Z,32.7
2018-06-24T02:55:48.681Z,32.3
2018-06-24T02:56:51.124Z,32.3
2018-06-24T02:57:53.840Z,32.3
2018-06-24T02:58:56.546Z,32.7
2018-06-24T02:59:59.264Z,32.7
2018-06-24T03:01:01.987Z,32.7
2018-06-24T03:02:04.781Z,33.2
2018-06-24T03:03:07.497Z,32.3
2018-06-24T03:04:10.215Z,32.3
2018-06-24T03:05:12.934Z,32.3
2018-06-24T03:06:15.391Z,32.3
2018-06-24T03:07:18.119Z,32.3
2018-06-24T03:08:20.836Z,31.8
2018-06-24T03:09:23.593Z,32.3
2018-06-24T03:10:26.066Z,32.3
2018-06-24T03:11:28.778Z,31.8
2018-06-24T03:12:31.507Z,31.8
2018-06-24T03:13:34.221Z,31.8
2018-06-24T03:14:36.951Z,31.3
2018-06-24T03:15:39.390Z,31.8
2018-06-24T03:16:42.116Z,31.8
2018-06-24T03:17:44.845Z,31.8
2018-06-24T03:18:47.525Z,31.3
2018-06-24T03:19:50.230Z,32.3
2018-06-24T03:20:52.934Z,32.3
2018-06-24T03:21:55.654Z,31.8
2018-06-24T03:22:58.373Z,32.3
2018-06-24T03:24:01.101Z,32.7
2018-06-24T03:25:03.807Z,32.3
2018-06-24T03:26:06.525Z,32.3
2018-06-24T03:27:09.237Z,32.7
2018-06-24T03:28:11.954Z,32.7
2018-06-24T03:29:14.425Z,33.2
2018-06-24T03:30:17.140Z,32.7
2018-06-24T03:31:19.869Z,33.2
2018-06-24T03:32:22.571Z,33.2
2018-06-24T03:33:25.273Z,33.7
2018-06-24T03:34:27.995Z,33.7
2018-06-24T03:35:30.714Z,33.2
2018-06-24T03:36:33.427Z,33.2
2018-06-24T03:37:36.138Z,33.2
2018-06-24T03:38:38.599Z,33.2
2018-06-24T03:39:41.324Z,33.2
2018-06-24T03:40:44.036Z,33.7
2018-06-24T03:41:46.751Z,33.7
2018-06-24T03:42:49.489Z,33.2
2018-06-24T03:43:51.940Z,33.2
2018-06-24T03:44:54.646Z,33.7
2018-06-24T03:45:57.077Z,33.7
2018-06-24T03:46:59.794Z,33.7
2018-06-24T03:48:02.241Z,33.7
2018-06-24T03:49:04.959Z,34.2
2018-06-24T03:50:07.695Z,33.7
2018-06-24T03:51:10.414Z,33.7
2018-06-24T03:52:13.132Z,33.7
2018-06-24T03:53:15.847Z,33.7
2018-06-24T03:54:18.567Z,33.7
2018-06-24T03:55:21.291Z,33.7
2018-06-24T03:56:24.010Z,33.7
2018-06-24T03:57:26.732Z,33.7
2018-06-24T03:58:29.451Z,34.2
2018-06-24T03:59:32.183Z,34.2
2018-06-24T04:00:34.898Z,33.7
2018-06-24T04:01:37.611Z,33.7
2018-06-24T04:02:40.327Z,33.7
2018-06-24T04:03:43.059Z,34.2
2018-06-24T04:04:46.066Z,33.7
2018-06-24T04:05:48.600Z,33.7
2018-06-24T04:06:51.317Z,33.7
2018-06-24T04:07:54.053Z,34.2
2018-06-24T04:08:56.505Z,33.7
2018-06-24T04:09:59.218Z,33.2
2018-06-24T04:11:01.938Z,34.2
2018-06-24T04:12:04.380Z,33.7
2018-06-24T04:13:07.111Z,33.7
2018-06-24T04:14:09.830Z,33.7
2018-06-24T04:15:12.563Z,33.7
2018-06-24T04:16:15.288Z,34.2
2018-06-24T04:17:18.033Z,34.2
2018-06-24T04:18:20.995Z,33.7
2018-06-24T04:19:23.760Z,33.7
2018-06-24T04:20:26.485Z,33.2
2018-06-24T04:21:29.218Z,34.2
2018-06-24T04:22:31.944Z,33.7
2018-06-24T04:23:34.660Z,33.7
2018-06-24T04:24:37.370Z,33.7
2018-06-24T04:25:40.295Z,33.7
2018-06-24T04:26:43.065Z,34.2
2018-06-24T04:27:45.774Z,33.7
2018-06-24T04:28:48.484Z,33.7
2018-06-24T04:29:51.226Z,33.7
2018-06-24T04:30:53.964Z,34.2
2018-06-24T04:31:56.676Z,33.7
2018-06-24T04:32:59.408Z,33.2
2018-06-24T04:34:02.153Z,33.7
2018-06-24T04:35:04.868Z,33.7
2018-06-24T04:36:07.597Z,33.7
2018-06-24T04:37:10.311Z,33.7
2018-06-24T04:38:13.032Z,33.7
2018-06-24T04:39:15.758Z,33.2
2018-06-24T04:40:17.944Z,33.7
2018-06-24T04:41:20.656Z,33.2
2018-06-24T04:42:23.378Z,33.2
2018-06-24T04:43:26.088Z,33.2
2018-06-24T04:44:28.541Z,33.7
2018-06-24T04:45:31.257Z,33.7
2018-06-24T04:46:33.978Z,33.7
2018-06-24T04:47:36.685Z,33.7
2018-06-24T04:48:39.439Z,33.2
2018-06-24T04:49:42.156Z,33.2
2018-06-24T04:50:44.874Z,33.2
2018-06-24T04:51:48.114Z,33.7
2018-06-24T04:52:50.831Z,33.7
2018-06-24T04:53:53.588Z,33.2
2018-06-24T04:54:56.307Z,32.7
2018-06-24T04:55:59.011Z,32.7
2018-06-24T04:57:01.460Z,33.2
2018-06-24T04:58:04.180Z,33.2
2018-06-24T04:59:06.893Z,32.7
2018-06-24T05:00:09.607Z,32.7
2018-06-24T05:01:12.048Z,32.7
2018-06-24T05:02:14.759Z,32.7
2018-06-24T05:03:17.480Z,32.3
2018-06-24T05:04:20.185Z,32.3
2018-06-24T05:05:22.623Z,32.3
2018-06-24T05:06:25.546Z,32.3
2018-06-24T05:07:28.255Z,31.8
2018-06-24T05:08:30.720Z,31.8
2018-06-24T05:09:33.425Z,31.8
2018-06-24T05:10:36.142Z,32.3
2018-06-24T05:11:38.865Z,31.8
2018-06-24T05:12:41.579Z,31.8
2018-06-24T05:13:44.299Z,32.3
2018-06-24T05:14:47.027Z,32.3
2018-06-24T05:15:49.740Z,32.3
2018-06-24T05:16:52.458Z,32.3
2018-06-24T05:17:55.179Z,32.3
2018-06-24T05:18:57.903Z,32.3
2018-06-24T05:20:00.624Z,32.3
2018-06-24T05:21:03.337Z,32.3
2018-06-24T05:22:06.070Z,32.7
2018-06-24T05:23:08.800Z,32.7
2018-06-24T05:24:11.500Z,32.7
2018-06-24T05:25:14.215Z,33.2
2018-06-24T05:26:16.933Z,33.2
2018-06-24T05:27:19.678Z,33.2
2018-06-24T05:28:22.392Z,33.7
2018-06-24T05:29:25.112Z,33.2
2018-06-24T05:30:27.829Z,33.2
2018-06-24T05:31:30.545Z,33.2
2018-06-24T05:32:33.264Z,33.7
2018-06-24T05:33:35.978Z,33.7
2018-06-24T05:34:38.440Z,33.2
2018-06-24T05:35:41.159Z,33.2
2018-06-24T05:36:43.870Z,33.2
2018-06-24T05:37:46.753Z,33.2
2018-06-24T05:38:49.531Z,33.7
2018-06-24T05:39:52.259Z,33.7
2018-06-24T05:40:54.986Z,33.2
2018-06-24T05:41:57.716Z,34.2
2018-06-24T05:43:00.236Z,34.2
2018-06-24T05:44:02.979Z,33.7
2018-06-24T05:45:05.712Z,33.7
2018-06-24T05:46:08.438Z,34.2
2018-06-24T05:47:10.893Z,33.7
2018-06-24T05:48:13.616Z,33.7
2018-06-24T05:49:16.325Z,33.7
2018-06-24T05:50:19.045Z,34.2
2018-06-24T05:51:21.764Z,33.7
2018-06-24T05:52:24.519Z,34.2
2018-06-24T05:53:27.241Z,34.2
2018-06-24T05:54:29.964Z,34.2
2018-06-24T05:55:32.702Z,33.7
2018-06-24T05:56:35.426Z,34.2
2018-06-24T05:57:38.130Z,33.7
2018-06-24T05:58:40.841Z,34.2
2018-06-24T05:59:43.559Z,33.7
2018-06-24T06:00:46.288Z,34.2
2018-06-24T06:01:49.021Z,34.2
2018-06-24T06:02:51.979Z,33.7
2018-06-24T06:03:54.758Z,33.7
2018-06-24T06:04:57.498Z,33.7
2018-06-24T06:06:00.203Z,34.2
2018-06-24T06:07:02.929Z,33.7
